createdAt,value
2022-10-28T00:01:22.528Z,8.10
2022-10-28T00:03:51.926Z,7.33
2022-10-28T00:06:24.971Z,8.10
2022-10-28T00:08:51.660Z,8.50
2022-10-28T00:11:21.874Z,8.37
2022-10-28T00:13:49.445Z,8.27
2022-10-28T00:16:19.346Z,7.90
2022-10-28T00:18:46.948Z,8.20
2022-10-28T00:21:17.113Z,8.30
2022-10-28T00:23:44.440Z,7.00
2022-10-28T00:26:17.205Z,7.50
2022-10-28T00:28:49.656Z,7.70
2022-10-28T00:31:18.164Z,7.63
2022-10-28T00:33:45.830Z,8.25
2022-10-28T00:36:21.299Z,7.57
2022-10-28T00:38:50.079Z,6.80
2022-10-28T00:41:22.635Z,8.20
2022-10-28T00:43:52.690Z,6.90
2022-10-28T00:46:28.490Z,8.53
2022-10-28T00:49:03.997Z,7.88
2022-10-28T00:51:33.439Z,8.17
2022-10-28T00:54:00.095Z,6.97
2022-10-28T00:56:30.508Z,7.55
2022-10-28T00:59:00.498Z,7.90
2022-10-28T01:01:30.314Z,7.23
2022-10-28T01:03:57.726Z,7.20
2022-10-28T01:06:26.758Z,7.20
2022-10-28T01:08:57.523Z,7.30
2022-10-28T01:15:33.630Z,8.68
2022-10-28T01:18:25.717Z,8.03
2022-10-28T01:21:23.651Z,7.13
2022-10-28T01:24:17.774Z,7.30
2022-10-28T01:26:55.891Z,7.70
2022-10-28T01:29:55.717Z,7.37
2022-10-28T01:33:14.278Z,7.73
2022-10-28T01:35:55.291Z,6.90
2022-10-28T01:38:30.181Z,7.90
2022-10-28T01:41:14.302Z,6.97
2022-10-28T01:43:50.255Z,7.00
2022-10-28T01:46:24.837Z,6.95
2022-10-28T01:48:57.304Z,6.23
2022-10-28T01:51:35.528Z,6.70
2022-10-28T01:54:05.383Z,6.60
2022-10-28T01:56:36.723Z,5.83
2022-10-28T01:59:07.713Z,5.40
2022-10-28T02:01:36.005Z,5.60
2022-10-28T02:04:03.629Z,5.80
2022-10-28T02:06:32.818Z,5.77
2022-10-28T02:09:30.997Z,6.07
2022-10-28T02:12:25.258Z,5.83
2022-10-28T02:15:21.031Z,6.57
2022-10-28T02:18:12.425Z,6.00
2022-10-28T02:20:55.606Z,5.70
2022-10-28T02:23:45.002Z,5.70
2022-10-28T02:26:36.807Z,6.43
2022-10-28T02:29:29.504Z,5.70
2022-10-28T02:31:59.861Z,6.60
2022-10-28T02:34:31.837Z,5.80
2022-10-28T02:37:00.902Z,6.37
2022-10-28T02:39:32.909Z,6.60
2022-10-28T02:42:24.075Z,5.70
2022-10-28T02:45:00.156Z,6.20
2022-10-28T02:47:33.747Z,5.80
2022-10-28T02:50:04.914Z,5.95
2022-10-28T02:52:33.419Z,6.20
2022-10-28T02:55:03.199Z,5.57
2022-10-28T02:57:33.554Z,4.67
2022-10-28T03:00:06.007Z,5.33
2022-10-28T03:02:32.885Z,5.55
2022-10-28T03:04:59.455Z,5.83
2022-10-28T03:07:26.070Z,5.33
2022-10-28T03:09:52.669Z,5.13
2022-10-28T03:12:19.301Z,6.77
2022-10-28T03:14:45.971Z,5.37
2022-10-28T03:17:12.593Z,5.97
2022-10-28T03:19:39.307Z,6.07
2022-10-28T03:22:05.962Z,6.03
2022-10-28T03:24:32.609Z,5.50
2022-10-28T03:26:59.631Z,5.60
2022-10-28T03:29:26.218Z,6.60
2022-10-28T03:31:52.792Z,6.57
2022-10-28T03:34:19.403Z,6.63
2022-10-28T03:36:45.989Z,6.67
2022-10-28T03:39:12.674Z,7.10
2022-10-28T03:41:39.277Z,7.27
2022-10-28T03:44:06.649Z,5.93
2022-10-28T03:46:35.201Z,6.77
2022-10-28T03:49:02.825Z,9.50
2022-10-28T03:51:29.529Z,6.00
2022-10-28T03:53:56.133Z,6.60
2022-10-28T03:56:22.818Z,7.30
2022-10-28T03:58:49.890Z,7.17
2022-10-28T04:01:16.766Z,5.80
2022-10-28T04:03:43.422Z,8.00
2022-10-28T04:06:10.136Z,7.35
2022-10-28T04:08:37.458Z,6.23
2022-10-28T04:11:04.173Z,6.60
2022-10-28T04:13:30.798Z,7.73
2022-10-28T04:15:57.588Z,6.40
2022-10-28T04:18:24.266Z,5.73
2022-10-28T04:20:50.839Z,6.50
2022-10-28T04:23:18.418Z,5.97
2022-10-28T04:25:45.183Z,7.30
2022-10-28T04:28:11.754Z,6.43
2022-10-28T04:30:38.387Z,5.87
2022-10-28T04:33:04.961Z,5.57
2022-10-28T04:35:31.584Z,5.50
2022-10-28T04:37:58.201Z,4.80
2022-10-28T04:40:24.830Z,4.97
2022-10-28T04:42:51.572Z,5.63
2022-10-28T04:45:18.353Z,6.25
2022-10-28T04:47:44.911Z,6.30
2022-10-28T04:50:11.494Z,5.97
2022-10-28T04:52:38.063Z,5.47
2022-10-28T04:55:05.236Z,6.57
2022-10-28T04:57:32.884Z,6.00
2022-10-28T04:59:59.618Z,6.10
2022-10-28T05:02:26.256Z,6.07
2022-10-28T05:04:52.959Z,5.83
2022-10-28T05:07:22.730Z,6.33
2022-10-28T05:09:50.275Z,6.00
2022-10-28T05:12:16.842Z,5.93
2022-10-28T05:14:43.404Z,6.10
2022-10-28T05:17:11.095Z,5.87
2022-10-28T05:19:37.854Z,5.40
2022-10-28T05:22:04.624Z,5.73
2022-10-28T05:24:31.275Z,6.00
2022-10-28T05:27:00.828Z,6.13
2022-10-28T05:29:32.266Z,6.33
2022-10-28T05:32:00.490Z,5.90
2022-10-28T05:34:27.142Z,6.57
2022-10-28T05:36:53.907Z,6.17
2022-10-28T05:39:20.490Z,6.07
2022-10-28T05:41:47.303Z,5.70
2022-10-28T05:44:13.872Z,6.43
2022-10-28T05:46:40.457Z,7.40
2022-10-28T05:49:07.155Z,7.40
2022-10-28T05:51:33.908Z,5.50
2022-10-28T05:54:00.491Z,5.27
2022-10-28T05:56:27.203Z,5.30
2022-10-28T05:58:53.862Z,6.47
2022-10-28T06:01:20.774Z,6.10
2022-10-28T06:03:47.412Z,6.47
2022-10-28T06:06:14.105Z,6.57
2022-10-28T06:08:40.681Z,6.80
2022-10-28T06:11:05.791Z,6.80
2022-10-28T06:13:32.484Z,6.50
2022-10-28T06:15:59.059Z,5.87
2022-10-28T06:18:25.680Z,5.90
2022-10-28T06:20:54.105Z,6.05
2022-10-28T06:23:22.594Z,5.05
2022-10-28T06:25:49.823Z,6.33
2022-10-28T06:28:16.451Z,5.30
2022-10-28T06:30:43.079Z,4.83
2022-10-28T06:33:09.779Z,5.17
2022-10-28T06:35:36.515Z,5.70
2022-10-28T06:38:07.237Z,4.17
2022-10-28T06:40:36.159Z,5.40
2022-10-28T06:43:04.766Z,4.70
2022-10-28T06:45:32.947Z,5.70
2022-10-28T06:48:04.282Z,5.10
2022-10-28T06:50:32.593Z,4.43
2022-10-28T06:52:59.621Z,6.20
2022-10-28T06:55:27.132Z,10.93
2022-10-28T06:57:54.142Z,6.67
2022-10-28T07:00:21.023Z,5.53
2022-10-28T07:02:52.620Z,5.63
2022-10-28T07:05:21.221Z,6.33
2022-10-28T07:07:48.112Z,7.30
2022-10-28T07:10:14.918Z,6.00
2022-10-28T07:12:41.540Z,5.20
2022-10-28T07:15:14.173Z,6.68
2022-10-28T07:17:40.778Z,5.20
2022-10-28T07:20:08.311Z,5.43
2022-10-28T07:22:34.888Z,6.57
2022-10-28T07:25:01.556Z,5.23
2022-10-28T07:27:28.220Z,6.83
2022-10-28T07:29:54.796Z,5.70
2022-10-28T07:32:21.394Z,6.50
2022-10-28T07:34:48.036Z,7.78
2022-10-28T07:37:14.634Z,5.83
2022-10-28T07:39:41.268Z,5.83
2022-10-28T07:42:07.869Z,5.20
2022-10-28T07:44:34.462Z,5.73
2022-10-28T07:47:01.096Z,5.40
2022-10-28T07:49:27.836Z,7.40
2022-10-28T07:51:54.472Z,5.53
2022-10-28T07:54:21.132Z,5.07
2022-10-28T07:56:47.933Z,5.50
2022-10-28T07:59:14.552Z,5.53
2022-10-28T08:01:41.320Z,5.23
2022-10-28T08:04:09.016Z,5.30
2022-10-28T08:06:35.941Z,5.60
2022-10-28T08:09:03.077Z,4.90
2022-10-28T08:11:29.692Z,5.60
2022-10-28T08:13:57.463Z,5.10
2022-10-28T08:16:24.475Z,6.33
2022-10-28T08:18:53.056Z,5.13
2022-10-28T08:21:19.853Z,6.60
2022-10-28T08:23:46.822Z,5.30
2022-10-28T08:26:14.972Z,4.90
2022-10-28T08:28:42.342Z,4.40
2022-10-28T08:31:10.081Z,5.63
2022-10-28T08:33:39.539Z,5.20
2022-10-28T08:36:07.533Z,4.20
2022-10-28T08:38:34.240Z,4.63
2022-10-28T08:41:23.659Z,5.00
2022-10-28T08:44:02.273Z,3.87
2022-10-28T08:46:37.841Z,4.20
2022-10-28T08:49:12.420Z,3.72
2022-10-28T08:51:44.893Z,5.27
2022-10-28T08:54:31.457Z,4.53
2022-10-28T08:57:00.969Z,3.60
2022-10-28T08:59:40.281Z,4.53
2022-10-28T09:02:19.138Z,4.70
2022-10-28T09:04:46.757Z,4.50
2022-10-28T09:07:22.085Z,3.70
2022-10-28T09:09:50.756Z,3.97
2022-10-28T09:12:23.273Z,3.95
2022-10-28T09:15:00.363Z,3.70
2022-10-28T09:18:14.437Z,4.33
2022-10-28T09:20:56.844Z,3.83
2022-10-28T09:23:33.674Z,4.13
2022-10-28T09:26:08.036Z,3.40
2022-10-28T09:28:54.569Z,3.87
2022-10-28T09:31:40.282Z,4.13
2022-10-28T09:34:37.810Z,3.43
2022-10-28T09:37:25.140Z,4.50
2022-10-28T09:40:21.496Z,5.00
2022-10-28T09:43:11.497Z,5.05
2022-10-28T09:45:43.590Z,3.63
2022-10-28T09:48:31.260Z,3.53
2022-10-28T09:50:58.790Z,3.80
2022-10-28T09:54:06.898Z,4.22
2022-10-28T09:56:33.531Z,3.43
2022-10-28T09:59:02.952Z,4.13
2022-10-28T10:01:38.013Z,5.30
2022-10-28T10:04:17.937Z,4.07
2022-10-28T10:06:49.194Z,4.82
2022-10-28T10:09:26.549Z,4.40
2022-10-28T10:12:08.429Z,4.30
2022-10-28T10:14:47.511Z,5.53
2022-10-28T10:17:25.634Z,4.50
2022-10-28T10:20:13.187Z,3.63
2022-10-28T10:22:43.528Z,3.30
2022-10-28T10:25:19.289Z,4.20
2022-10-28T10:27:57.681Z,3.83
2022-10-28T10:30:37.972Z,4.63
2022-10-28T10:33:05.930Z,3.53
2022-10-28T10:35:36.772Z,5.27
2022-10-28T10:38:05.947Z,4.03
2022-10-28T10:40:52.578Z,4.30
2022-10-28T10:43:21.596Z,5.30
2022-10-28T10:46:00.696Z,4.03
2022-10-28T10:48:29.427Z,4.20
2022-10-28T10:50:56.905Z,4.30
2022-10-28T10:53:33.987Z,4.77
2022-10-28T10:56:10.773Z,3.83
2022-10-28T10:58:52.471Z,4.43
2022-10-28T11:01:24.283Z,4.07
2022-10-28T11:06:38.820Z,4.00
2022-10-28T11:09:18.270Z,4.43
2022-10-28T11:11:45.331Z,4.37
2022-10-28T11:14:13.299Z,4.30
2022-10-28T11:16:51.633Z,3.90
2022-10-28T11:19:35.637Z,4.60
2022-10-28T11:22:27.189Z,4.60
2022-10-28T11:25:29.871Z,4.45
2022-10-28T11:28:22.343Z,4.50
2022-10-28T11:31:26.794Z,3.90
2022-10-28T11:34:23.048Z,4.00
2022-10-28T11:37:20.579Z,4.67
2022-10-28T11:40:00.615Z,3.80
2022-10-28T11:43:01.757Z,4.20
2022-10-28T11:45:56.857Z,4.00
2022-10-28T11:48:37.705Z,4.90
2022-10-28T11:51:18.620Z,4.20
2022-10-28T11:53:54.956Z,4.47
2022-10-28T11:56:24.546Z,4.10
2022-10-28T11:59:03.055Z,4.13
2022-10-28T12:01:49.106Z,4.50
2022-10-28T12:04:26.964Z,4.20
2022-10-28T12:07:15.185Z,4.65
2022-10-28T12:09:51.725Z,3.70
2022-10-28T12:12:21.038Z,4.80
2022-10-28T12:15:20.683Z,4.60
2022-10-28T12:17:50.275Z,3.87
2022-10-28T12:20:38.934Z,4.20
2022-10-28T12:23:12.488Z,3.67
2022-10-28T12:25:43.371Z,4.80
2022-10-28T12:28:24.608Z,3.80
2022-10-28T12:30:53.156Z,3.60
2022-10-28T12:33:25.023Z,5.10
2022-10-28T12:35:57.902Z,5.13
2022-10-28T12:38:36.689Z,3.40
2022-10-28T12:41:09.035Z,4.73
2022-10-28T12:43:50.355Z,3.97
2022-10-28T12:46:22.701Z,3.80
2022-10-28T12:48:58.092Z,4.43
2022-10-28T12:51:34.336Z,4.00
2022-10-28T12:54:14.935Z,4.00
2022-10-28T12:56:56.826Z,4.37
2022-10-28T12:59:41.705Z,5.22
2022-10-28T13:02:20.286Z,4.43
2022-10-28T13:04:47.182Z,4.63
2022-10-28T13:07:22.547Z,4.57
2022-10-28T13:10:07.726Z,4.27
2022-10-28T13:12:48.285Z,4.10
2022-10-28T13:15:34.941Z,4.63
2022-10-28T13:18:20.628Z,4.90
2022-10-28T13:21:18.711Z,4.00
2022-10-28T13:24:21.095Z,4.40
2022-10-28T13:26:48.720Z,4.87
2022-10-28T13:29:23.766Z,4.20
2022-10-28T13:31:51.845Z,5.20
2022-10-28T13:34:22.620Z,4.30
2022-10-28T13:36:58.354Z,5.17
2022-10-28T13:39:27.984Z,5.30
2022-10-28T13:42:12.613Z,5.30
2022-10-28T13:44:52.873Z,4.60
2022-10-28T13:47:33.246Z,4.10
2022-10-28T13:50:06.048Z,4.97
2022-10-28T13:52:40.241Z,4.00
2022-10-28T13:55:27.004Z,4.90
2022-10-28T13:58:24.301Z,4.87
2022-10-28T14:00:53.460Z,5.13
2022-10-28T14:03:26.748Z,4.13
2022-10-28T14:05:58.503Z,4.40
2022-10-28T14:08:29.457Z,3.65
2022-10-28T14:10:59.149Z,4.60
2022-10-28T14:13:26.299Z,4.90
2022-10-28T14:16:24.915Z,4.43
2022-10-28T14:19:02.981Z,4.45
2022-10-28T14:22:01.573Z,3.40
2022-10-28T14:24:34.803Z,4.70
2022-10-28T14:27:11.896Z,4.55
2022-10-28T14:29:54.508Z,4.03
2022-10-28T14:32:33.368Z,4.40
2022-10-28T14:35:03.597Z,5.73
2022-10-28T14:37:51.654Z,6.03
2022-10-28T14:40:32.129Z,4.93
2022-10-28T14:43:04.743Z,4.80
2022-10-28T14:45:59.192Z,3.97
2022-10-28T14:48:41.816Z,4.27
2022-10-28T14:51:16.717Z,4.87
2022-10-28T14:53:46.535Z,5.10
2022-10-28T14:56:24.317Z,4.57
2022-10-28T14:58:52.337Z,4.90
2022-10-28T15:01:19.314Z,4.97
2022-10-28T15:03:48.744Z,4.80
2022-10-28T15:06:39.499Z,4.47
2022-10-28T15:09:18.066Z,5.33
2022-10-28T15:11:56.245Z,4.60
2022-10-28T15:14:30.579Z,4.30
2022-10-28T15:16:57.374Z,5.75
2022-10-28T15:19:27.288Z,4.00
2022-10-28T15:22:21.781Z,4.30
2022-10-28T15:25:10.826Z,4.10
2022-10-28T15:27:39.387Z,5.00
2022-10-28T15:30:20.740Z,4.67
2022-10-28T15:32:47.364Z,5.30
2022-10-28T15:35:35.557Z,5.43
2022-10-28T15:38:21.683Z,4.40
2022-10-28T15:40:49.066Z,5.00
2022-10-28T15:43:27.470Z,5.22
2022-10-28T15:45:55.107Z,5.10
2022-10-28T15:48:27.045Z,5.47
2022-10-28T15:51:11.996Z,5.30
2022-10-28T15:53:40.335Z,5.20
2022-10-28T15:56:19.300Z,6.70
2022-10-28T15:59:16.532Z,5.60
2022-10-28T16:01:43.327Z,5.93
2022-10-28T16:04:19.216Z,5.20
2022-10-28T16:06:47.041Z,5.30
2022-10-28T16:09:20.231Z,9.57
2022-10-28T16:11:53.030Z,9.27
2022-10-28T16:14:37.172Z,5.90
2022-10-28T16:17:27.961Z,5.80
2022-10-28T16:19:56.525Z,5.50
2022-10-28T16:22:26.176Z,5.50
2022-10-28T16:24:54.164Z,6.38
2022-10-28T16:27:23.448Z,6.83
2022-10-28T16:29:50.820Z,6.07
2022-10-28T16:32:22.343Z,5.30
2022-10-28T16:34:48.981Z,5.37
2022-10-28T16:37:20.928Z,6.57
2022-10-28T16:39:47.622Z,6.47
2022-10-28T16:42:14.723Z,6.93
2022-10-28T16:44:41.315Z,9.10
2022-10-28T16:47:13.596Z,6.40
2022-10-28T16:49:41.271Z,6.53
2022-10-28T16:52:25.612Z,5.57
2022-10-28T16:54:52.261Z,5.77
2022-10-28T16:57:20.335Z,5.97
2022-10-28T16:59:47.442Z,6.80
2022-10-28T17:02:21.595Z,5.77
2022-10-28T17:04:48.303Z,7.40
2022-10-28T17:07:16.345Z,6.30
2022-10-28T17:09:43.316Z,7.50
2022-10-28T17:12:18.777Z,6.28
2022-10-28T17:14:45.401Z,7.23
2022-10-28T17:17:12.533Z,7.97
2022-10-28T17:19:40.068Z,6.70
2022-10-28T17:22:09.307Z,6.80
2022-10-28T17:24:37.483Z,6.10
2022-10-28T17:27:05.044Z,6.83
2022-10-28T17:29:31.664Z,6.27
2022-10-28T17:31:58.283Z,6.20
2022-10-28T17:34:24.964Z,7.80
2022-10-28T17:36:51.584Z,7.23
2022-10-28T17:39:23.324Z,8.70
2022-10-28T17:41:52.666Z,8.77
2022-10-28T17:44:19.296Z,6.60
2022-10-28T17:46:48.488Z,7.60
2022-10-28T17:49:16.073Z,7.87
2022-10-28T17:51:43.299Z,6.60
2022-10-28T17:54:10.219Z,7.45
2022-10-28T17:56:37.284Z,7.03
2022-10-28T17:59:04.424Z,7.53
2022-10-28T18:01:33.013Z,6.82
2022-10-28T18:04:00.038Z,7.90
2022-10-28T18:06:27.109Z,8.50
2022-10-28T18:08:53.903Z,8.00
2022-10-28T18:11:21.146Z,7.20
2022-10-28T18:13:51.313Z,7.15
2022-10-28T18:16:22.068Z,8.30
2022-10-28T18:18:48.756Z,9.30
2022-10-28T18:21:15.508Z,7.80
2022-10-28T18:23:42.283Z,7.13
2022-10-28T18:26:14.347Z,6.10
2022-10-28T18:28:42.600Z,6.10
2022-10-28T18:31:14.652Z,6.90
2022-10-28T18:33:42.909Z,7.13
2022-10-28T18:36:14.777Z,7.00
2022-10-28T18:38:41.796Z,7.67
2022-10-28T18:41:13.177Z,6.10
2022-10-28T18:43:40.574Z,7.10
2022-10-28T18:46:08.126Z,8.20
2022-10-28T18:48:35.075Z,6.90
2022-10-28T18:51:10.905Z,7.53
2022-10-28T18:53:39.720Z,6.85
2022-10-28T18:56:08.564Z,7.22
2022-10-28T18:58:35.788Z,7.90
2022-10-28T19:01:09.659Z,7.80
2022-10-28T19:03:36.798Z,6.70
2022-10-28T19:06:06.315Z,8.10
2022-10-28T19:08:33.505Z,8.60
2022-10-28T19:11:01.815Z,7.87
2022-10-28T19:13:29.095Z,10.47
2022-10-28T19:15:55.775Z,11.30
2022-10-28T19:18:22.419Z,9.20
2022-10-28T19:20:50.574Z,9.80
2022-10-28T19:23:17.752Z,12.50
2022-10-28T19:25:54.485Z,10.73
2022-10-28T19:28:21.160Z,9.50
2022-10-28T19:30:48.005Z,10.50
2022-10-28T19:33:14.734Z,8.90
2022-10-28T19:35:41.330Z,9.97
2022-10-28T19:38:07.883Z,12.07
2022-10-28T19:40:34.457Z,9.93
2022-10-28T19:43:01.032Z,7.50
2022-10-28T19:45:27.604Z,7.67
2022-10-28T19:47:54.491Z,7.43
2022-10-28T19:50:21.372Z,7.80
2022-10-28T19:52:48.077Z,7.73
2022-10-28T19:55:15.231Z,6.40
2022-10-28T19:57:41.978Z,7.10
2022-10-28T20:00:10.800Z,7.27
2022-10-28T20:02:37.418Z,7.57
2022-10-28T20:05:04.375Z,7.30
2022-10-28T20:07:30.966Z,7.38
2022-10-28T20:12:29.041Z,7.50
2022-10-28T20:14:55.747Z,7.30
2022-10-28T20:17:22.461Z,9.93
2022-10-28T20:19:49.098Z,9.23
2022-10-28T20:22:17.171Z,10.10
2022-10-28T20:24:43.804Z,9.63
2022-10-28T20:27:10.360Z,10.53
2022-10-28T20:29:36.936Z,8.90
2022-10-28T20:32:03.858Z,9.20
2022-10-28T20:34:30.456Z,10.97
2022-10-28T20:36:57.082Z,11.07
2022-10-28T20:39:23.817Z,9.50
2022-10-28T20:41:51.302Z,9.83
2022-10-28T20:44:18.020Z,11.10
2022-10-28T20:46:48.060Z,11.20
2022-10-28T20:49:15.111Z,11.37
2022-10-28T20:51:42.533Z,9.90
2022-10-28T20:54:09.321Z,9.10
2022-10-28T20:56:37.900Z,9.90
2022-10-28T20:59:05.355Z,8.50
2022-10-28T21:01:34.323Z,8.50
2022-10-28T21:04:04.368Z,8.77
2022-10-28T21:06:31.429Z,10.20
2022-10-28T21:08:59.135Z,10.07
2022-10-28T21:11:27.008Z,10.17
2022-10-28T21:13:58.525Z,8.15
2022-10-28T21:16:26.523Z,9.07
2022-10-28T21:18:53.329Z,8.50
2022-10-28T21:21:22.031Z,9.30
2022-10-28T21:23:48.708Z,8.63
2022-10-28T21:26:15.334Z,11.13
2022-10-28T21:28:41.992Z,8.70
2022-10-28T21:31:11.629Z,8.50
2022-10-28T21:33:38.928Z,8.67
2022-10-28T21:36:09.224Z,9.43
2022-10-28T21:38:37.089Z,8.23
2022-10-28T21:41:10.888Z,8.00
2022-10-28T21:43:41.037Z,8.90
2022-10-28T21:46:08.565Z,9.10
2022-10-28T21:48:37.079Z,9.07
2022-10-28T21:51:10.106Z,7.93
2022-10-28T21:53:41.754Z,8.80
2022-10-28T21:56:13.788Z,8.40
2022-10-28T21:58:43.175Z,8.10
2022-10-28T22:01:11.058Z,7.67
2022-10-28T22:03:38.377Z,8.02
2022-10-28T22:06:05.376Z,8.93
2022-10-28T22:08:32.425Z,8.63
2022-10-28T22:11:14.005Z,7.10
2022-10-28T22:13:40.894Z,8.00
2022-10-28T22:16:13.630Z,8.17
2022-10-28T22:18:40.361Z,7.60
2022-10-28T22:21:11.048Z,7.37
2022-10-28T22:23:38.005Z,8.00
2022-10-28T22:26:06.489Z,8.07
2022-10-28T22:28:33.340Z,7.53
2022-10-28T22:31:01.174Z,7.80
2022-10-28T22:33:28.179Z,8.20
2022-10-28T22:35:59.439Z,7.15
2022-10-28T22:38:26.767Z,6.50
2022-10-28T22:41:24.857Z,7.70
2022-10-28T22:43:54.331Z,7.50
2022-10-28T22:46:22.380Z,8.07
2022-10-28T22:48:49.121Z,7.43
2022-10-28T22:51:16.582Z,8.53
2022-10-28T22:53:43.233Z,7.13
2022-10-28T22:56:20.628Z,7.50
2022-10-28T22:58:48.248Z,6.70
2022-10-28T23:01:17.465Z,7.57
2022-10-28T23:03:46.436Z,7.67
2022-10-28T23:06:15.661Z,8.20
2022-10-28T23:08:43.229Z,9.40
2022-10-28T23:11:10.487Z,6.83
2022-10-28T23:16:12.132Z,6.90
2022-10-28T23:18:38.995Z,6.63
2022-10-28T23:21:25.658Z,7.28
2022-10-28T23:23:59.730Z,8.10
2022-10-28T23:26:28.156Z,7.03
2022-10-28T23:28:59.189Z,7.57
2022-10-28T23:31:26.669Z,6.67
2022-10-28T23:33:54.457Z,6.87
2022-10-28T23:36:21.298Z,6.90
2022-10-28T23:38:48.153Z,7.03
2022-10-28T23:41:18.636Z,6.63
2022-10-28T23:43:46.713Z,6.57
2022-10-28T23:46:13.350Z,7.47
2022-10-28T23:48:39.904Z,7.30
2022-10-28T23:51:06.721Z,7.23
2022-10-28T23:53:33.948Z,6.13
2022-10-28T23:56:00.556Z,6.47
2022-10-28T23:58:27.292Z,7.13
